Briarcliff Manor, NY (10510)

1:11 PM EDT on June 03, 2015 (GMT -0400)
Pace University - Dyson Hall | | Change Station
CLOSE
Current Station
Personal Weather Station
Location: Pleasantville, NY
Elevation: 323 ft
Nearby Weather Stations

Elev 323 ft 41.13 °N, 73.81 °W | Updated 2 minutes ago

Mostly Cloudy
Mostly Cloudy
66.7 °F
Feels Like 66.7 °F
N
1.0
Wind Variable Wind from South
Gusts 3.0 mph

Today
High -- | Low -- °F
--% Chance of Precip.
Yesterday
High -- | Low -- °F
Precip. -- in
5:24 AM 8:22 PM
Full, 99% visible
Pressure 30.21 in
Visibility 10.0 miles
Clouds Scattered Clouds 2900 ft
Dew Point 53 °F
Humidity 62%
Rainfall -999.00 in
Snow Depth Not available.
UV 10 out of 12
Pollen 7.50 out of 12
Air Quality Not available.
Flu Activity Sporadic
METAR KHPN 031656Z 00000KT 10SM SCT029 18/10 A3021 RMK AO2 SLP229 T01830100

More Conditions Fewer Conditions

Pressure 30.21 in
Visibility 10.0 miles
Clouds Scattered Clouds 2900 ft
Dew Point 53 °F
Humidity 62%
Rainfall -999.00 in
Snow Depth Not available.
UV 10 out of 12
Pollen 7.50 out of 12
Air Quality Not available.
Flu Activity Sporadic
METAR KHPN 031656Z 00000KT 10SM SCT029 18/10 A3021 RMK AO2 SLP229 T01830100

More Conditions Fewer Conditions

10-Day Weather Forecast

×

Almanac

Astronomy

Jun. 03, 2015 Rise Set
Actual Time
Civil Twilight
Nautical Twilight
Astronomical Twilight
Moon
Length of Visible Light
Length of Day
Tomorrow will be .
, % of the Moon is Illuminated

Today's Extremes

State Highs State Lows

Community

WunderPhotos

Upload Photos

1,826,256 photos uploaded!

WunderBlogs® & News

Nearby

Air Quality

  Air Quality AQ Index Pollutant
Not available.

Snow Depth

Station Depth Elevation

Earthquake Activity

City Distance Mag. Time & Date
Minimum magnitude displayed is 2.5.

Coastal Water Temperatures

Place Temperature

Stations

Nearby Weather Stations

Station Location Temp. Windchill Dew Point Humidity Wind Precip. Elev Updated Type